Archival Weather

Pocono Mountains Rgnl

Mount Pocono, Pennsylvania (KMPO)

Report from: Tuesday, May 21, 2024 8:53 PM EDT
Current time: Monday, July 22, 2024 6:24 AM EDT

Current weather – Weather history – Daily summaries
Weather forecast

Temperature20.0°C (68.0°F)
Dew point12.8°C (55.0°F)
Winds 5 kts (2.6 m/s, 5.8 mph) South (190°)
Visibility10 mi. (16.1 km)
Clouds Sky clear
Altimeter29.99 in.Hg (1016 mB)
Relative humidity63 %
Density altitude743 ft. (226 m)
Sea-level pressure101.5 kPa (1015 mB, 29.96 in.Hg)
Remarks Fully automated report
Automated weather observing station with precipitation discriminator
Flight conditions Visual Meteorological Conditions
Raw dataKMPO 220053Z AUTO 19005KT 10SM CLR 20/13 A2999 RMK AO2 SLP147 T02000128
An error has occurred. This application may no longer respond until reloaded. Reload 🗙